Metar z pełnej godziny Komunikat METAR ze strony awiacja.imgw.pl Metar G00 EPLL METAR EPLL 261800Z 28012KT 9999 SCT026 BKN029 00/M04 Q1009 =